| time (UTC) | temp F | wind direction | speed MPH | gust MPH | rain 1hr in | rain 24hr in | rain mn in | humidity % | barometer mb |
| 20260903224052 | 48 | 165 | 0.0 | 1.0 | 0.01 | 1.52 | 1.52 | 77 | 1005.9 |
| 20260903223552 | 49 | 198 | 0.0 | 2.0 | 0.01 | 1.51 | 1.51 | 77 | 1005.9 |
| 20260903223052 | 48 | 257 | 0.0 | 2.0 | 0.01 | 1.51 | 1.50 | 71 | 1005.9 |
| 20260903222552 | 48 | 215 | 0.0 | 2.0 | 0.01 | 1.51 | 1.50 | 77 | 1006.4 |
| 20260903222052 | 49 | 229 | 0.0 | 1.0 | 0.01 | 1.51 | 1.50 | 70 | 1006.4 |
| 20260903221552 | 49 | 72 | 0.0 | 5.0 | 0.01 | 1.51 | 1.50 | 77 | 1005.3 |
| 20260903221052 | 48 | 176 | 0.0 | 5.0 | 0.00 | 1.51 | 1.49 | 71 | 1005.6 |
| 20260903220552 | 49 | 254 | 0.0 | 5.0 | 0.00 | 1.51 | 1.49 | 72 | 1005.6 |
| 20260903220052 | 48 | 308 | 0.0 | 3.0 | 0.00 | 1.51 | 1.49 | 73 | 1006.8 |
| 20260903215552 | 48 | 292 | 0.0 | 3.0 | 0.00 | 1.51 | 1.49 | 77 | 1005.6 |
| 20260903215053 | 49 | 194 | 0.0 | 9.0 | 0.00 | 1.51 | 1.49 | 77 | 1005.1 |
| 20260903214552 | 48 | 229 | 0.0 | 9.0 | 0.00 | 1.51 | 1.49 | 78 | 1006.7 |
| 20260903214052 | 49 | 229 | 0.0 | 9.0 | 0.00 | 1.60 | 1.49 | 77 | 1007.0 |
| 20260903213552 | 49 | 126 | 2.0 | 6.0 | 0.00 | 1.60 | 1.49 | 77 | 1006.6 |
| 20260903213052 | 49 | 235 | 0.0 | 6.0 | 0.00 | 1.60 | 1.49 | 78 | 1005.5 |
| 20260903212552 | 49 | 247 | 2.0 | 6.0 | 0.00 | 1.60 | 1.49 | 77 | 1005.3 |
| 20260903212053 | 49 | 229 | 0.0 | 3.0 | 0.00 | 1.60 | 1.49 | 77 | 1005.1 |
| 20260903211553 | 49 | 259 | 0.0 | 3.0 | 0.00 | 1.60 | 1.49 | 78 | 1005.4 |
| 20260903211052 | 49 | 218 | 1.0 | 8.0 | 0.00 | 1.60 | 1.49 | 78 | 1005.5 |
| 20260903210552 | 49 | 86 | 0.0 | 8.0 | 0.00 | 1.60 | 1.49 | 78 | 1005.7 |
| 20260903210052 | 48 | 105 | 1.0 | 8.0 | 0.01 | 1.60 | 1.49 | 78 | 1005.4 |
| 20260903205552 | 48 | 246 | 0.0 | 6.0 | 0.01 | 1.60 | 1.49 | 78 | 1005.5 |
| 20260903205052 | 48 | 166 | 0.0 | 6.0 | 0.04 | 1.60 | 1.49 | 78 | 1006.3 |
| 20260903204552 | 48 | 238 | 1.0 | 6.0 | 0.04 | 1.60 | 1.49 | 78 | 1006.8 |
| 20260903204052 | 48 | 204 | 0.0 | 6.0 | 0.04 | 1.71 | 1.49 | 78 | 1005.6 |
| 20260903203552 | 47 | 124 | 0.0 | 5.0 | 0.04 | 1.71 | 1.49 | 77 | 1005.6 |
| 20260903203052 | 48 | 357 | 0.0 | 5.0 | 0.04 | 1.71 | 1.49 | 77 | 1006.6 |
| 20260903202552 | 48 | 151 | 0.0 | 5.0 | 0.04 | 1.71 | 1.49 | 77 | 1004.9 |
| 20260903202052 | 48 | 102 | 0.0 | 5.0 | 0.04 | 1.71 | 1.49 | 77 | 1005.6 |
| 20260903201552 | 48 | 198 | 0.0 | 3.0 | 0.04 | 1.71 | 1.49 | 76 | 1006.4 |
| 20260903201052 | 48 | 205 | 0.0 | 5.0 | 0.04 | 1.71 | 1.49 | 78 | 1005.8 |
| 20260903200552 | 47 | 205 | 0.0 | 5.0 | 0.04 | 1.71 | 1.49 | 79 | 1005.0 |
| 20260903200053 | 47 | 193 | 0.0 | 5.0 | 0.03 | 1.71 | 1.49 | 77 | 1006.2 |
| 20260903195552 | 47 | 224 | 0.0 | 2.0 | 0.03 | 1.71 | 1.48 | 78 | 1006.0 |
| 20260903195057 | 47 | 212 | 0.0 | 6.0 | 0.01 | 1.71 | 1.47 | 78 | 1005.8 |
| 20260903194552 | 47 | 246 | 0.0 | 6.0 | 0.01 | 1.71 | 1.46 | 72 | 1005.8 |
| 20260903194052 | 47 | 217 | 0.0 | 6.0 | 0.02 | 1.84 | 1.45 | 78 | 1005.3 |
| 20260903193552 | 47 | 242 | 0.0 | 6.0 | 0.02 | 1.84 | 1.45 | 79 | 1005.3 |
| 20260903193052 | 47 | 222 | 0.0 | 7.0 | 0.02 | 1.84 | 1.45 | 78 | 1005.9 |
| 20260903192552 | 48 | 207 | 2.0 | 7.0 | 0.02 | 1.84 | 1.45 | 78 | 1005.7 |
| 20260903192052 | 48 | 193 | 0.0 | 7.0 | 0.02 | 1.84 | 1.45 | 78 | 1007.3 |
| 20260903191552 | 47 | 246 | 0.0 | 8.0 | 0.02 | 1.84 | 1.45 | 79 | 1005.5 |
| 20260903191052 | 47 | 154 | 0.0 | 8.0 | 0.03 | 1.84 | 1.45 | 79 | 1005.8 |
| 20260903190552 | 47 | 170 | 0.0 | 8.0 | 0.03 | 1.84 | 1.45 | 79 | 1006.2 |
| 20260903190052 | 47 | 221 | 0.0 | 9.0 | 0.03 | 1.84 | 1.45 | 79 | 1005.7 |
| 20260903185552 | 47 | 228 | 1.0 | 9.0 | 0.03 | 1.84 | 1.45 | 79 | 1006.5 |
| 20260903185052 | 47 | 224 | 0.0 | 9.0 | 0.03 | 1.84 | 1.45 | 79 | 1005.8 |
| 20260903184552 | 47 | 196 | 2.0 | 6.0 | 0.03 | 1.84 | 1.44 | 79 | 1005.7 |
| 20260903184053 | 47 | 190 | 1.0 | 6.0 | 0.06 | 1.92 | 1.44 | 79 | 1005.3 |
| 20260903183552 | 46 | 250 | 0.0 | 6.0 | 0.06 | 1.92 | 1.43 | 79 | 1005.4 |
| 20260903183052 | 47 | 201 | 0.0 | 9.0 | 0.12 | 1.92 | 1.43 | 80 | 1006.5 |
| 20260903182552 | 47 | 224 | 1.0 | 9.0 | 0.12 | 1.92 | 1.43 | 79 | 1006.0 |
| 20260903182052 | 47 | 198 | 0.0 | 9.0 | 0.25 | 1.92 | 1.43 | 80 | 1005.9 |
| 20260903181552 | 47 | 225 | 0.0 | 7.0 | 0.25 | 1.92 | 1.43 | 79 | 1006.4 |
| 20260903181052 | 46 | 236 | 2.0 | 6.0 | 0.31 | 1.92 | 1.43 | 79 | 1006.2 |
| 20260903180552 | 46 | 179 | 0.0 | 10.0 | 0.31 | 1.92 | 1.42 | 80 | 1006.0 |
| 20260903180052 | 46 | 200 | 1.0 | 10.0 | 0.31 | 1.92 | 1.42 | 80 | 1006.2 |
| 20260903175552 | 46 | 189 | 0.0 | 10.0 | 0.31 | 1.92 | 1.42 | 80 | 1005.7 |
| 20260903175052 | 45 | 224 | 0.0 | 8.0 | 0.32 | 1.92 | 1.42 | 79 | 1006.2 |
| 20260903174552 | 45 | 239 | 1.0 | 7.0 | 0.32 | 1.92 | 1.41 | 79 | 1006.7 |
| 20260903174052 | 45 | 259 | 0.0 | 7.0 | 0.29 | 1.70 | 1.40 | 79 | 1005.7 |
| 20260903173552 | 45 | 228 | 0.0 | 3.0 | 0.29 | 1.70 | 1.39 | 80 | 1006.3 |
| 20260903173052 | 45 | 173 | 2.0 | 4.0 | 0.24 | 1.70 | 1.36 | 80 | 1006.6 |
| 20260903172552 | 45 | 229 | 0.0 | 4.0 | 0.24 | 1.70 | 1.33 | 80 | 1005.9 |
| 20260903172052 | 45 | 233 | 2.0 | 4.0 | 0.11 | 1.70 | 1.27 | 79 | 1006.9 |
| 20260903171552 | 46 | 270 | 0.0 | 3.0 | 0.11 | 1.70 | 1.21 | 79 | 1006.3 |
| 20260903171052 | 46 | 0 | 0.0 | 2.0 | 0.07 | 1.70 | 1.15 | 78 | 1006.5 |
| 20260903170552 | 46 | 0 | 0.0 | 2.0 | 0.07 | 1.70 | 1.12 | 79 | 1005.4 |
| 20260903170052 | 45 | 247 | 0.0 | 2.0 | 0.07 | 1.70 | 1.11 | 79 | 1006.3 |
| 20260903165552 | 45 | 0 | 0.0 | 7.0 | 0.07 | 1.70 | 1.11 | 80 | 1006.6 |
| 20260903165051 | 45 | 243 | 0.0 | 7.0 | 0.05 | 1.70 | 1.10 | 79 | 1005.1 |
| 20260903164552 | 46 | 263 | 0.0 | 7.0 | 0.05 | 1.70 | 1.10 | 78 | 1005.5 |
| 20260903164051 | 46 | 250 | 0.0 | 6.0 | 0.04 | 1.72 | 1.08 | 79 | 1005.4 |
| 20260903163552 | 46 | 252 | 0.0 | 6.0 | 0.04 | 1.72 | 1.08 | 79 | 1006.0 |
| 20260903163051 | 46 | 196 | 0.0 | 4.0 | 0.03 | 1.72 | 1.07 | 80 | 1006.7 |
| 20260903162551 | 46 | 306 | 0.0 | 7.0 | 0.03 | 1.72 | 1.07 | 80 | 1006.0 |
| 20260903162051 | 46 | 212 | 0.0 | 7.0 | 0.08 | 1.72 | 1.07 | 80 | 1005.6 |
| 20260903161551 | 46 | 263 | 1.0 | 7.0 | 0.08 | 1.72 | 1.07 | 79 | 1005.4 |
| 20260903161051 | 46 | 224 | 1.0 | 6.0 | 0.07 | 1.72 | 1.07 | 80 | 1006.2 |
| 20260903160551 | 46 | 79 | 1.0 | 6.0 | 0.07 | 1.72 | 1.05 | 79 | 1006.4 |
| 20260903160051 | 46 | 229 | 0.0 | 6.0 | 0.08 | 1.72 | 1.04 | 80 | 1006.4 |
| 20260903155551 | 46 | 231 | 2.0 | 5.0 | 0.08 | 1.72 | 1.04 | 80 | 1006.6 |
| 20260903155051 | 46 | 201 | 0.0 | 5.0 | 0.10 | 1.72 | 1.04 | 80 | 1006.0 |
| 20260903154551 | 45 | 198 | 2.0 | 10.0 | 0.10 | 1.72 | 1.04 | 79 | 1006.2 |
| 20260903154051 | 45 | 187 | 0.0 | 10.0 | 0.12 | 1.72 | 1.04 | 80 | 1005.9 |
| 20260903153551 | 45 | 226 | 1.0 | 10.0 | 0.12 | 1.72 | 1.04 | 80 | 1005.7 |
| 20260903153051 | 45 | 245 | 3.0 | 8.0 | 0.13 | 1.72 | 1.04 | 80 | 1005.4 |
| 20260903152551 | 45 | 232 | 0.0 | 8.0 | 0.13 | 1.72 | 1.04 | 79 | 1004.9 |
| 20260903152051 | 45 | 221 | 3.0 | 4.0 | 0.10 | 1.72 | 1.03 | 80 | 1005.4 |
| 20260903151551 | 45 | 217 | 0.0 | 11.0 | 0.10 | 1.72 | 1.00 | 78 | 1006.0 |
| 20260903151051 | 45 | 231 | 0.0 | 11.0 | 0.15 | 1.72 | 0.99 | 79 | 1006.0 |
| 20260903150551 | 45 | 191 | 2.0 | 11.0 | 0.15 | 1.72 | 0.97 | 80 | 1005.1 |
| 20260903150051 | 45 | 221 | 3.0 | 10.0 | 0.15 | 1.72 | 0.96 | 79 | 1005.9 |
| 20260903145551 | 45 | 224 | 1.0 | 10.0 | 0.15 | 1.72 | 0.96 | 79 | 1004.9 |
| 20260903145051 | 46 | 226 | 4.0 | 10.0 | 0.13 | 1.72 | 0.95 | 80 | 1005.5 |
| 20260903144551 | 46 | 243 | 2.0 | 9.0 | 0.13 | 1.72 | 0.94 | 79 | 1005.5 |
| 20260903144051 | 46 | 260 | 1.0 | 9.0 | 0.11 | 1.60 | 0.93 | 76 | 1005.4 |
| 20260903143551 | 46 | 215 | 1.0 | 9.0 | 0.11 | 1.60 | 0.93 | 75 | 1005.5 |
| 20260903143052 | 46 | 215 | 0.0 | 6.0 | 0.11 | 1.60 | 0.92 | 80 | 1005.9 |
| 20260903142552 | 46 | 212 | 2.0 | 11.0 | 0.11 | 1.60 | 0.91 | 80 | 1005.4 |
| 20260903142051 | 46 | 224 | 1.0 | 11.0 | 0.11 | 1.60 | 0.91 | 80 | 1004.8 |
| 20260903141551 | 46 | 156 | 0.0 | 11.0 | 0.11 | 1.60 | 0.90 | 80 | 1005.5 |
| 20260903141051 | 46 | 243 | 0.0 | 7.0 | 0.07 | 1.60 | 0.87 | 79 | 1006.2 |
| 20260903140551 | 46 | 210 | 1.0 | 7.0 | 0.07 | 1.60 | 0.82 | 80 | 1005.7 |
| 20260903140052 | 46 | 239 | 0.0 | 7.0 | 0.06 | 1.60 | 0.82 | 79 | 1005.6 |
| 20260903135551 | 46 | 226 | 0.0 | 9.0 | 0.06 | 1.60 | 0.81 | 79 | 1005.8 |
| 20260903135051 | 46 | 252 | 1.0 | 9.0 | 0.06 | 1.60 | 0.81 | 79 | 1005.1 |
| 20260903134551 | 46 | 207 | 0.0 | 9.0 | 0.06 | 1.60 | 0.81 | 79 | 1005.4 |
| 20260903134051 | 46 | 226 | 0.0 | 7.0 | 0.06 | 1.58 | 0.81 | 79 | 1004.7 |
| 20260903133556 | 46 | 217 | 2.0 | 7.0 | 0.06 | 1.58 | 0.81 | 79 | 1004.7 |
| 20260903133051 | 46 | 147 | 0.0 | 17.0 | 0.05 | 1.58 | 0.81 | 79 | 1006.0 |
| 20260903132551 | 46 | 242 | 1.0 | 17.0 | 0.05 | 1.58 | 0.81 | 79 | 1004.6 |
| 20260903132051 | 46 | 204 | 4.0 | 17.0 | 0.04 | 1.58 | 0.80 | 80 | 1005.1 |
| 20260903131551 | 46 | 211 | 4.0 | 13.0 | 0.04 | 1.58 | 0.79 | 81 | 1004.9 |
| 20260903131051 | 47 | 152 | 4.0 | 4.0 | 0.05 | 1.58 | 0.77 | 81 | 1005.1 |
| 20260903130551 | 47 | 210 | 0.0 | 12.0 | 0.05 | 1.58 | 0.75 | 80 | 1004.8 |
| 20260903130051 | 47 | 221 | 0.0 | 12.0 | 0.19 | 1.58 | 0.75 | 80 | 1005.5 |
| 20260903125551 | 47 | 228 | 0.0 | 12.0 | 0.19 | 1.58 | 0.75 | 80 | 1005.1 |
| 20260903125051 | 47 | 218 | 1.0 | 8.0 | 0.20 | 1.58 | 0.75 | 80 | 1005.0 |
| 20260903124551 | 47 | 208 | 0.0 | 5.0 | 0.20 | 1.58 | 0.75 | 80 | 1005.4 |
| 20260903124051 | 46 | 201 | 1.0 | 10.0 | 0.21 | 1.38 | 0.75 | 81 | 1005.0 |
| 20260903123551 | 47 | 231 | 0.0 | 10.0 | 0.21 | 1.38 | 0.75 | 81 | 1004.9 |
| 20260903123051 | 46 | 196 | 2.0 | 10.0 | 0.23 | 1.38 | 0.75 | 81 | 1005.7 |
| 20260903122551 | 46 | 259 | 0.0 | 8.0 | 0.23 | 1.38 | 0.75 | 81 | 1004.7 |
| 20260903122051 | 46 | 229 | 2.0 | 17.0 | 0.27 | 1.38 | 0.75 | 81 | 1005.0 |
| 20260903121551 | 46 | 250 | 5.0 | 17.0 | 0.27 | 1.38 | 0.74 | 81 | 1004.8 |
| 20260903121051 | 47 | 201 | 4.0 | 17.0 | 0.27 | 1.38 | 0.74 | 81 | 1005.9 |
| 20260903120551 | 47 | 281 | 9.0 | 13.0 | 0.27 | 1.38 | 0.71 | 80 | 1004.8 |
| 20260903120051 | 47 | 277 | 4.0 | 8.0 | 0.15 | 1.38 | 0.67 | 78 | 1005.5 |
| 20260903115551 | 47 | 231 | 4.0 | 10.0 | 0.15 | 1.38 | 0.58 | 80 | 1004.9 |
| 20260903115051 | 47 | 224 | 2.0 | 10.0 | 0.16 | 1.38 | 0.55 | 81 | 1004.7 |
| 20260903114551 | 47 | 207 | 2.0 | 10.0 | 0.16 | 1.38 | 0.55 | 80 | 1004.8 |
| 20260903114051 | 47 | 221 | 2.0 | 12.0 | 0.19 | 1.22 | 0.55 | 80 | 1004.8 |
| 20260903113551 | 47 | 200 | 3.0 | 12.0 | 0.19 | 1.22 | 0.54 | 80 | 1005.7 |
| 20260903113051 | 47 | 228 | 5.0 | 12.0 | 0.24 | 1.22 | 0.53 | 80 | 1005.1 |
| 20260903112551 | 47 | 224 | 5.0 | 8.0 | 0.24 | 1.22 | 0.53 | 81 | 1004.8 |
| 20260903112051 | 47 | 239 | 0.0 | 11.0 | 0.21 | 1.22 | 0.50 | 80 | 1005.3 |
| 20260903111551 | 47 | 253 | 0.0 | 11.0 | 0.21 | 1.22 | 0.49 | 80 | 1005.6 |
| 20260903111051 | 47 | 222 | 5.0 | 11.0 | 0.22 | 1.22 | 0.44 | 80 | 1005.1 |
| 20260903110551 | 47 | 208 | 0.0 | 7.0 | 0.22 | 1.22 | 0.43 | 80 | 1005.4 |
| 20260903110052 | 47 | 228 | 0.0 | 6.0 | 0.23 | 1.22 | 0.42 | 79 | 1005.9 |
| 20260903105551 | 47 | 208 | 2.0 | 13.0 | 0.23 | 1.22 | 0.41 | 80 | 1006.2 |
| 20260903105052 | 47 | 256 | 5.0 | 13.0 | 0.22 | 1.22 | 0.40 | 79 | 1005.4 |
| 20260903104551 | 47 | 236 | 0.0 | 13.0 | 0.22 | 1.22 | 0.39 | 80 | 1005.9 |
| 20260903104051 | 47 | 222 | 3.0 | 13.0 | 0.20 | 1.00 | 0.39 | 81 | 1005.0 |
| 20260903103551 | 47 | 245 | 2.0 | 13.0 | 0.20 | 1.00 | 0.37 | 80 | 1006.7 |
| 20260903103051 | 47 | 247 | 4.0 | 14.0 | 0.13 | 1.00 | 0.33 | 81 | 1005.3 |
| 20260903102551 | 47 | 165 | 2.0 | 14.0 | 0.13 | 1.00 | 0.28 | 80 | 1005.6 |
| 20260903102454 | 47 | 217 | 1.0 | 14.0 | 0.14 | 1.00 | 0.27 | 80 | 1005.4 |
| 20260903102051 | 47 | 217 | 1.0 | 14.0 | 0.14 | 1.00 | 0.27 | 80 | 1005.4 |
| 20260903101551 | 48 | 235 | 4.0 | 11.0 | 0.14 | 1.00 | 0.27 | 81 | 1005.4 |
| 20260903101051 | 48 | 222 | 1.0 | 10.0 | 0.12 | 1.00 | 0.24 | 80 | 1005.3 |
| 20260903100551 | 48 | 152 | 3.0 | 9.0 | 0.12 | 1.00 | 0.22 | 82 | 1004.7 |
| 20260903100051 | 48 | 232 | 1.0 | 8.0 | 0.12 | 1.00 | 0.19 | 81 | 1005.4 |
| 20260903095551 | 48 | 217 | 2.0 | 12.0 | 0.12 | 1.00 | 0.19 | 81 | 1005.3 |
| 20260903094551 | 48 | 225 | 3.0 | 12.0 | 0.11 | 1.00 | 0.17 | 82 | 1005.4 |
| 20260903094051 | 48 | 232 | 1.0 | 8.0 | 0.09 | 0.89 | 0.17 | 81 | 1005.3 |
| 20260903093551 | 48 | 224 | 3.0 | 15.0 | 0.09 | 0.89 | 0.15 | 81 | 1005.6 |
| 20260903093051 | 48 | 217 | 2.0 | 15.0 | 0.09 | 0.89 | 0.15 | 80 | 1005.7 |
| 20260903092551 | 48 | 217 | 5.0 | 15.0 | 0.09 | 0.89 | 0.15 | 82 | 1005.0 |
| 20260903092051 | 48 | 239 | 2.0 | 11.0 | 0.06 | 0.89 | 0.14 | 81 | 1005.5 |
| 20260903091551 | 48 | 204 | 3.0 | 9.0 | 0.06 | 0.89 | 0.13 | 81 | 1005.1 |
| 20260903091051 | 48 | 252 | 1.0 | 9.0 | 0.03 | 0.89 | 0.11 | 82 | 1005.1 |
| 20260903090551 | 48 | 225 | 2.0 | 11.0 | 0.03 | 0.89 | 0.10 | 81 | 1005.4 |
| 20260903090053 | 48 | 197 | 2.0 | 11.0 | 0.00 | 0.89 | 0.07 | 81 | 1006.0 |
| 20260903085551 | 48 | 165 | 1.0 | 11.0 | 0.00 | 0.89 | 0.06 | 81 | 1005.4 |
| 20260903085051 | 48 | 240 | 0.0 | 15.0 | 0.00 | 0.89 | 0.06 | 80 | 1005.0 |
| 20260903084551 | 48 | 232 | 2.0 | 15.0 | 0.00 | 0.89 | 0.06 | 80 | 1005.5 |
| 20260903084051 | 48 | 224 | 3.0 | 15.0 | 0.00 | 0.89 | 0.06 | 78 | 1005.4 |
| 20260903083551 | 48 | 224 | 7.0 | 10.0 | 0.00 | 0.89 | 0.06 | 80 | 1005.4 |
| 20260903083218 | 48 | 231 | 3.0 | 9.0 | 0.00 | 0.89 | 0.06 | 79 | 1005.6 |
| 20260903083051 | 48 | 231 | 3.0 | 9.0 | 0.00 | 0.89 | 0.06 | 79 | 1005.6 |
| 20260903082551 | 48 | 226 | 1.0 | 18.0 | 0.00 | 0.89 | 0.06 | 79 | 1005.1 |
| 20260903082051 | 48 | 208 | 3.0 | 18.0 | 0.00 | 0.89 | 0.06 | 79 | 1005.9 |
| 20260903081551 | 48 | 224 | 2.0 | 18.0 | 0.00 | 0.89 | 0.06 | 79 | 1005.7 |
| 20260903081051 | 48 | 211 | 5.0 | 12.0 | 0.03 | 0.89 | 0.06 | 79 | 1006.2 |
| 20260903080551 | 48 | 229 | 4.0 | 11.0 | 0.03 | 0.89 | 0.06 | 80 | 1005.5 |
| 20260903080051 | 48 | 217 | 5.0 | 10.0 | 0.04 | 0.89 | 0.06 | 80 | 1005.3 |
| 20260903075551 | 48 | 179 | 4.0 | 14.0 | 0.04 | 0.89 | 0.06 | 79 | 1005.5 |
| 20260903075051 | 48 | 229 | 5.0 | 14.0 | 0.04 | 0.89 | 0.06 | 79 | 1005.6 |
| 20260903074551 | 48 | 228 | 4.0 | 14.0 | 0.04 | 0.89 | 0.06 | 79 | 1005.7 |
| 20260903074050 | 48 | 233 | 7.0 | 12.0 | 0.04 | 0.85 | 0.06 | 79 | 1005.3 |
| 20260903073550 | 48 | 214 | 6.0 | 12.0 | 0.04 | 0.85 | 0.06 | 80 | 1006.0 |
| 20260903073051 | 48 | 231 | 4.0 | 12.0 | 0.04 | 0.85 | 0.06 | 79 | 1005.9 |
| 20260903072550 | 48 | 198 | 2.0 | 12.0 | 0.04 | 0.85 | 0.06 | 79 | 1005.8 |
| 20260903072050 | 48 | 228 | 5.0 | 11.0 | 0.05 | 0.85 | 0.06 | 80 | 1005.6 |
| 20260903071551 | 48 | 224 | 2.0 | 12.0 | 0.05 | 0.85 | 0.06 | 81 | 1005.8 |
| 20260903071050 | 48 | 198 | 5.0 | 12.0 | 0.02 | 0.85 | 0.05 | 81 | 1006.6 |
| 20260903070550 | 48 | 217 | 1.0 | 12.0 | 0.02 | 0.85 | 0.04 | 80 | 1005.4 |
| 20260903070050 | 48 | 158 | 5.0 | 9.0 | 0.01 | 0.85 | 0.02 | 79 | 1006.4 |
| 20260903065550 | 48 | 247 | 2.0 | 9.0 | 0.01 | 0.85 | 0.02 | 79 | 1005.9 |
| 20260903065050 | 48 | 224 | 0.0 | 14.0 | 0.01 | 0.85 | 0.02 | 79 | 1005.6 |
| 20260903064550 | 48 | 232 | 3.0 | 14.0 | 0.01 | 0.85 | 0.02 | 79 | 1005.4 |
| 20260903064050 | 48 | 208 | 2.0 | 14.0 | 0.01 | 0.85 | 0.02 | 80 | 1005.5 |
| 20260903063550 | 48 | 253 | 2.0 | 13.0 | 0.01 | 0.85 | 0.02 | 80 | 1006.0 |
| 20260903063052 | 48 | 190 | 4.0 | 11.0 | 0.01 | 0.85 | 0.02 | 79 | 1006.7 |
| 20260903062550 | 48 | 197 | 3.0 | 9.0 | 0.01 | 0.85 | 0.02 | 79 | 1005.8 |
| 20260903062050 | 48 | 232 | 1.0 | 7.0 | 0.00 | 0.85 | 0.02 | 79 | 1005.9 |
| 20260903061550 | 48 | 219 | 0.0 | 10.0 | 0.00 | 0.85 | 0.01 | 78 | 1005.9 |
| 20260903061051 | 48 | 226 | 4.0 | 10.0 | 0.00 | 0.85 | 0.01 | 79 | 1005.8 |
| 20260903060550 | 48 | 217 | 1.0 | 10.0 | 0.00 | 0.85 | 0.01 | 79 | 1005.5 |
| 20260903060050 | 48 | 217 | 2.0 | 9.0 | 0.00 | 0.85 | 0.01 | 80 | 1006.4 |
| 20260903055551 | 48 | 217 | 4.0 | 7.0 | 0.00 | 0.85 | 0.01 | 80 | 1005.9 |
| 20260903055050 | 48 | 236 | 1.0 | 10.0 | 0.00 | 0.85 | 0.01 | 80 | 1005.6 |
| 20260903054550 | 48 | 214 | 1.0 | 10.0 | 0.00 | 0.85 | 0.01 | 81 | 1006.2 |
| 20260903054050 | 48 | 231 | 2.0 | 10.0 | 0.00 | 0.88 | 0.01 | 80 | 1005.9 |
| 20260903053550 | 48 | 221 | 3.0 | 11.0 | 0.00 | 0.88 | 0.01 | 81 | 1005.9 |
| 20260903053050 | 48 | 233 | 2.0 | 11.0 | 0.00 | 0.88 | 0.01 | 80 | 1006.0 |
| 20260903052550 | 48 | 211 | 4.0 | 11.0 | 0.00 | 0.88 | 0.01 | 80 | 1006.0 |
| 20260903052050 | 48 | 231 | 2.0 | 13.0 | 0.00 | 0.88 | 0.01 | 81 | 1005.8 |
| 20260903051550 | 48 | 222 | 2.0 | 13.0 | 0.00 | 0.88 | 0.01 | 80 | 1006.0 |
| 20260903051050 | 48 | 226 | 4.0 | 13.0 | 0.00 | 0.88 | 0.01 | 80 | 1006.7 |
| 20260903050550 | 48 | 245 | 2.0 | 11.0 | 0.00 | 0.88 | 0.01 | 80 | 1006.4 |
| 20260903050050 | 48 | 225 | 2.0 | 11.0 | 0.00 | 0.88 | 0.01 | 79 | 1005.7 |
| 20260903045550 | 48 | 253 | 2.0 | 11.0 | 0.00 | 0.88 | 0.01 | 80 | 1006.0 |
| 20260903045050 | 48 | 236 | 3.0 | 11.0 | 0.00 | 0.88 | 0.01 | 80 | 1005.4 |
| 20260903044550 | 48 | 201 | 2.0 | 10.0 | 0.00 | 0.88 | 0.01 | 80 | 1005.5 |
| 20260903044050 | 48 | 204 | 2.0 | 10.0 | 0.00 | 0.88 | 0.01 | 80 | 1005.9 |
| 20260903043551 | 48 | 204 | 1.0 | 9.0 | 0.00 | 0.88 | 0.01 | 81 | 1005.5 |
| 20260903043051 | 48 | 242 | 3.0 | 15.0 | 0.00 | 0.88 | 0.01 | 80 | 1006.8 |
| 20260903042551 | 48 | 229 | 4.0 | 15.0 | 0.00 | 0.88 | 0.01 | 81 | 1006.4 |
| 20260903042050 | 48 | 232 | 5.0 | 15.0 | 0.00 | 0.88 | 0.01 | 80 | 1005.7 |
| 20260903041550 | 48 | 193 | 3.0 | 12.0 | 0.00 | 0.88 | 0.01 | 80 | 1005.4 |
| 20260903041050 | 48 | 235 | 4.0 | 11.0 | 0.00 | 0.88 | 0.01 | 81 | 1007.2 |
| 20260903040550 | 48 | 253 | 3.0 | 8.0 | 0.00 | 0.88 | 0.01 | 80 | 1006.2 |
| 20260903040050 | 48 | 236 | 1.0 | 7.0 | 0.00 | 0.88 | 0.01 | 79 | 1005.8 |
| 20260903035550 | 48 | 247 | 2.0 | 10.0 | 0.00 | 0.88 | 0.01 | 80 | 1005.4 |
| 20260903035050 | 48 | 229 | 4.0 | 10.0 | 0.00 | 0.88 | 0.01 | 80 | 1005.7 |
| 20260903034550 | 48 | 214 | 1.0 | 10.0 | 0.00 | 0.88 | 0.01 | 80 | 1005.7 |
| 20260903034050 | 48 | 217 | 3.0 | 5.0 | 0.00 | 0.88 | 0.01 | 80 | 1005.4 |
| 20260903033550 | 48 | 205 | 1.0 | 9.0 | 0.00 | 0.88 | 0.01 | 79 | 1005.8 |
| 20260903033050 | 48 | 242 | 3.0 | 9.0 | 0.00 | 0.88 | 0.01 | 80 | 1006.6 |
| 20260903032550 | 48 | 214 | 4.0 | 9.0 | 0.00 | 0.88 | 0.01 | 80 | 1005.0 |
| 20260903032050 | 48 | 232 | 3.0 | 12.0 | 0.00 | 0.88 | 0.01 | 79 | 1004.9 |
| 20260903031550 | 48 | 232 | 3.0 | 12.0 | 0.00 | 0.88 | 0.01 | 79 | 1004.8 |
| 20260903031050 | 48 | 204 | 2.0 | 12.0 | 0.00 | 0.88 | 0.01 | 79 | 1006.3 |
| 20260903030550 | 48 | 264 | 1.0 | 12.0 | 0.00 | 0.88 | 0.01 | 79 | 1005.4 |
| 20260903030050 | 48 | 217 | 0.0 | 10.0 | 0.00 | 0.88 | 0.01 | 79 | 1006.0 |
| 20260903025550 | 48 | 200 | 5.0 | 10.0 | 0.00 | 0.88 | 0.01 | 79 | 1005.4 |
| 20260903025050 | 48 | 263 | 3.0 | 7.0 | 0.01 | 0.88 | 0.01 | 79 | 1005.4 |
| 20260903024550 | 48 | 229 | 2.0 | 12.0 | 0.01 | 0.88 | 0.01 | 79 | 1004.9 |
| 20260903024050 | 48 | 219 | 3.0 | 12.0 | 0.01 | 0.87 | 0.01 | 79 | 1005.7 |
| 20260903023550 | 48 | 256 | 3.0 | 12.0 | 0.01 | 0.87 | 0.01 | 79 | 1005.6 |
| 20260903023050 | 48 | 236 | 7.0 | 12.0 | 0.01 | 0.87 | 0.01 | 79 | 1005.3 |
| 20260903022550 | 49 | 252 | 3.0 | 12.0 | 0.01 | 0.87 | 0.01 | 78 | 1005.1 |
| 20260903022050 | 49 | 252 | 3.0 | 12.0 | 0.01 | 0.87 | 0.01 | 78 | 1005.3 |
| 20260903021550 | 49 | 259 | 6.0 | 16.0 | 0.01 | 0.87 | 0.01 | 78 | 1005.3 |
| 20260903021050 | 49 | 253 | 3.0 | 16.0 | 0.01 | 0.87 | 0.01 | 78 | 1005.3 |
| 20260903020550 | 49 | 256 | 3.0 | 16.0 | 0.01 | 0.87 | 0.01 | 77 | 1005.4 |
| 20260903020050 | 49 | 250 | 3.0 | 14.0 | 0.01 | 0.87 | 0.01 | 77 | 1005.5 |
| 20260903015550 | 49 | 267 | 4.0 | 12.0 | 0.01 | 0.87 | 0.01 | 77 | 1005.0 |
| 20260903015050 | 49 | 268 | 2.0 | 9.0 | 0.00 | 0.87 | 0.01 | 78 | 1004.9 |
| 20260903014550 | 49 | 261 | 0.0 | 13.0 | 0.00 | 0.87 | 0.01 | 77 | 1004.7 |
| 20260903014050 | 49 | 260 | 3.0 | 13.0 | 0.00 | 0.87 | 0.00 | 80 | 1004.8 |
| 20260903013550 | 49 | 240 | 2.0 | 13.0 | 0.00 | 0.87 | 0.00 | 79 | 1005.4 |
| 20260903013050 | 49 | 270 | 3.0 | 14.0 | 0.00 | 0.87 | 0.00 | 80 | 1005.6 |
| 20260903012550 | 50 | 266 | 2.0 | 14.0 | 0.00 | 0.87 | 0.00 | 80 | 1004.8 |
| 20260903012050 | 49 | 263 | 5.0 | 14.0 | 0.00 | 0.87 | 0.00 | 80 | 1005.0 |
| 20260903011550 | 49 | 270 | 4.0 | 12.0 | 0.00 | 0.87 | 0.00 | 80 | 1004.8 |
| 20260903011050 | 49 | 256 | 1.0 | 12.0 | 0.00 | 0.87 | 0.00 | 80 | 1006.6 |
| 20260903010550 | 49 | 261 | 5.0 | 12.0 | 0.00 | 0.87 | 0.00 | 78 | 1005.1 |
| 20260903010051 | 49 | 250 | 2.0 | 13.0 | 0.00 | 0.87 | 0.00 | 80 | 1005.4 |
| 20260903005550 | 49 | 256 | 2.0 | 13.0 | 0.00 | 0.87 | 0.00 | 80 | 1006.2 |
| 20260903005050 | 49 | 282 | 7.0 | 13.0 | 0.00 | 0.87 | 0.00 | 80 | 1004.7 |
| 20260903004550 | 50 | 259 | 6.0 | 13.0 | 0.00 | 0.87 | 0.00 | 79 | 1005.4 |
| 20260903004050 | 50 | 249 | 5.0 | 12.0 | 0.00 | 0.87 | 0.00 | 79 | 1005.6 |
| 20260903003550 | 50 | 249 | 2.0 | 12.0 | 0.00 | 0.87 | 0.00 | 79 | 1004.6 |
| 20260903003050 | 50 | 245 | 5.0 | 12.0 | 0.00 | 0.87 | 0.00 | 79 | 1005.9 |
| 20260903002550 | 50 | 282 | 4.0 | 10.0 | 0.00 | 0.87 | 0.00 | 79 | 1004.7 |
| 20260903002050 | 50 | 253 | 1.0 | 10.0 | 0.00 | 0.87 | 0.00 | 79 | 1004.5 |
| 20260903001550 | 50 | 253 | 4.0 | 10.0 | 0.00 | 0.87 | 0.00 | 80 | 1006.0 |
| 20260903001050 | 50 | 243 | 1.0 | 10.0 | 0.00 | 0.87 | 0.00 | 79 | 1005.9 |
| 20260903000550 | 50 | 246 | 4.0 | 9.0 | 0.00 | 0.87 | 0.00 | 79 | 1004.4 |
| 20260903000050 | 50 | 267 | 5.0 | 12.0 | 0.00 | 0.87 | 0.00 | 79 | 1005.5 |
| 20260902235550 | 50 | 254 | 3.0 | 12.0 | 0.00 | 0.87 | 0.00 | 79 | 1004.8 |
| 20260902235050 | 51 | 233 | 3.0 | 12.0 | 0.00 | 0.87 | 0.00 | 79 | 1004.9 |
| 20260902234550 | 51 | 250 | 3.0 | 8.0 | 0.00 | 0.87 | 0.00 | 79 | 1004.5 |
| 20260902234050 | 51 | 245 | 4.0 | 11.0 | 0.00 | 0.87 | 0.00 | 79 | 1004.3 |
| 20260902233550 | 51 | 261 | 2.0 | 11.0 | 0.00 | 0.87 | 0.87 | 79 | 1005.0 |
| 20260902233050 | 51 | 252 | 5.0 | 11.0 | 0.00 | 0.87 | 0.87 | 78 | 1005.3 |
| 20260902232550 | 51 | 260 | 4.0 | 12.0 | 0.00 | 0.87 | 0.87 | 79 | 1004.1 |
| 20260902232050 | 51 | 249 | 2.0 | 12.0 | 0.00 | 0.87 | 0.87 | 78 | 1004.1 |
| 20260902231550 | 51 | 257 | 1.0 | 12.0 | 0.00 | 0.87 | 0.87 | 78 | 1004.9 |
| 20260902231050 | 51 | 232 | 5.0 | 8.0 | 0.01 | 0.87 | 0.87 | 78 | 1005.7 |
| 20260902230551 | 51 | 211 | 1.0 | 11.0 | 0.01 | 0.87 | 0.87 | 79 | 1003.9 |
| 20260902230050 | 51 | 260 | 4.0 | 11.0 | 0.01 | 0.87 | 0.87 | 79 | 1004.1 |
| 20260902225550 | 50 | 263 | 1.0 | 11.0 | 0.01 | 0.87 | 0.87 | 76 | 1004.0 |
| 20260902225050 | 50 | 271 | 4.0 | 11.0 | 0.02 | 0.87 | 0.87 | 80 | 1003.9 |